createdAt,value
2022-08-04T00:02:06.821Z,99323.91
2022-08-04T00:04:54.161Z,99322.32
2022-08-04T00:07:44.834Z,99319.89
2022-08-04T00:10:16.308Z,99323.21
2022-08-04T00:12:48.264Z,99320.93
2022-08-04T00:15:17.063Z,99323.50
2022-08-04T00:17:46.874Z,99318.40
2022-08-04T00:20:18.661Z,99318.82
2022-08-04T00:22:48.952Z,99320.11
2022-08-04T00:25:16.932Z,99320.16
2022-08-04T00:27:44.616Z,99320.15
2022-08-04T00:30:12.258Z,99315.39
2022-08-04T00:32:41.526Z,99312.64
2022-08-04T00:35:10.699Z,99312.64
2022-08-04T00:37:38.920Z,99313.88
2022-08-04T00:40:18.184Z,99314.58
2022-08-04T00:43:07.025Z,99316.40
2022-08-04T00:46:15.538Z,99314.16
2022-08-04T00:49:01.139Z,99315.35
2022-08-04T00:51:48.147Z,99320.22
2022-08-04T00:55:11.062Z,99321.39
2022-08-04T00:57:53.496Z,99320.38
2022-08-04T01:00:22.165Z,99321.50
2022-08-04T01:03:08.474Z,99321.86
2022-08-04T01:06:18.919Z,99321.16
2022-08-04T01:09:05.259Z,99326.05
2022-08-04T01:12:08.453Z,99326.90
2022-08-04T01:15:10.606Z,99327.06
2022-08-04T01:18:06.801Z,99325.26
2022-08-04T01:21:00.225Z,99325.27
2022-08-04T01:23:52.651Z,99325.16
2022-08-04T01:26:42.105Z,99327.29
2022-08-04T01:29:15.777Z,99324.53
2022-08-04T01:32:05.465Z,99325.27
2022-08-04T01:34:42.687Z,99322.66
2022-08-04T01:37:23.573Z,99324.88
2022-08-04T01:40:01.389Z,99324.99
2022-08-04T01:42:32.578Z,99327.64
2022-08-04T01:45:06.725Z,99327.47
2022-08-04T01:47:36.614Z,99331.15
2022-08-04T01:50:07.463Z,99328.77
2022-08-04T01:52:36.845Z,99331.60
2022-08-04T01:55:06.912Z,99330.55
2022-08-04T01:57:45.967Z,99329.83
2022-08-04T02:00:17.193Z,99328.48
2022-08-04T02:02:45.908Z,99329.83
2022-08-04T02:05:18.019Z,99325.07
2022-08-04T02:08:02.129Z,99322.63
2022-08-04T02:10:29.732Z,99321.47
2022-08-04T02:13:11.901Z,99321.05
2022-08-04T02:15:50.048Z,99319.96
2022-08-04T02:18:27.569Z,99322.08
2022-08-04T02:20:58.619Z,99316.67
2022-08-04T02:23:31.082Z,99318.23
2022-08-04T02:26:03.207Z,99319.04
2022-08-04T02:28:36.601Z,99318.44
2022-08-04T02:31:17.714Z,99318.06
2022-08-04T02:33:55.361Z,99315.59
2022-08-04T02:36:36.225Z,99314.38
2022-08-04T02:39:05.951Z,99310.96
2022-08-04T02:41:34.538Z,99313.41
2022-08-04T02:44:05.135Z,99311.45
2022-08-04T02:46:34.610Z,99311.45
2022-08-04T02:49:04.995Z,99314.14
2022-08-04T02:51:37.806Z,99312.57
2022-08-04T02:54:07.033Z,99314.58
2022-08-04T02:56:37.478Z,99311.52
2022-08-04T02:59:09.291Z,99310.16
2022-08-04T03:01:37.537Z,99309.59
2022-08-04T03:04:34.565Z,99311.72
2022-08-04T03:07:24.102Z,99312.75
2022-08-04T03:10:36.719Z,99313.17
2022-08-04T03:13:32.854Z,99315.77
2022-08-04T03:16:08.813Z,99317.61
2022-08-04T03:19:20.742Z,99316.80
2022-08-04T03:22:08.030Z,99314.10
2022-08-04T03:25:09.945Z,99320.33
2022-08-04T03:27:53.200Z,99316.98
2022-08-04T03:30:29.396Z,99320.56
2022-08-04T03:33:20.933Z,99325.06
2022-08-04T03:36:31.677Z,99321.91
2022-08-04T03:39:19.463Z,99323.73
2022-08-04T03:42:04.215Z,99321.60
2022-08-04T03:44:44.992Z,99322.77
2022-08-04T03:47:46.886Z,99321.80
2022-08-04T03:50:41.662Z,99327.84
2022-08-04T03:53:27.984Z,99327.86
2022-08-04T03:56:23.968Z,99325.41
2022-08-04T03:59:14.831Z,99332.69
2022-08-04T04:02:11.740Z,99336.21
2022-08-04T04:05:01.052Z,99332.23
2022-08-04T04:07:40.252Z,99335.56
2022-08-04T04:10:47.879Z,99331.86
2022-08-04T04:13:51.383Z,99336.58
2022-08-04T04:16:50.245Z,99342.98
2022-08-04T04:19:50.498Z,99344.27
2022-08-04T04:22:38.284Z,99347.23
2022-08-04T04:25:25.604Z,99342.48
2022-08-04T04:28:43.790Z,99345.17
2022-08-04T04:31:26.858Z,99340.83
2022-08-04T04:34:06.458Z,99348.03
2022-08-04T04:36:58.361Z,99351.53
2022-08-04T04:39:36.640Z,99354.17
2022-08-04T04:42:36.305Z,99351.02
2022-08-04T04:45:17.634Z,99353.00
2022-08-04T04:48:08.536Z,99351.58
2022-08-04T04:51:09.151Z,99350.14
2022-08-04T04:54:01.262Z,99348.55
2022-08-04T04:56:37.321Z,99348.30
2022-08-04T04:59:09.921Z,99351.50
2022-08-04T05:01:51.696Z,99348.43
2022-08-04T05:04:52.749Z,99351.43
2022-08-04T05:07:53.083Z,99346.63
2022-08-04T05:10:58.245Z,99351.31
2022-08-04T05:14:37.889Z,99347.31
2022-08-04T05:16:31.632Z,99348.30
2022-08-04T05:19:33.892Z,99347.98
2022-08-04T05:22:10.106Z,99345.93
2022-08-04T05:24:43.341Z,99340.98
2022-08-04T05:27:25.713Z,99346.63
2022-08-04T05:29:56.599Z,99348.69
2022-08-04T05:32:28.638Z,99354.48
2022-08-04T05:35:00.488Z,99350.19
2022-08-04T05:37:30.379Z,99351.11
2022-08-04T05:40:02.894Z,99357.45
2022-08-04T05:42:35.977Z,99354.66
2022-08-04T05:45:04.377Z,99355.89
2022-08-04T05:47:33.042Z,99359.86
2022-08-04T05:50:03.072Z,99360.80
2022-08-04T05:52:31.723Z,99362.52
2022-08-04T05:55:00.658Z,99363.44
2022-08-04T05:57:29.209Z,99364.11
2022-08-04T05:59:59.986Z,99368.73
2022-08-04T06:02:28.529Z,99365.13
2022-08-04T06:04:57.094Z,99366.91
2022-08-04T06:07:26.637Z,99364.73
2022-08-04T06:09:54.937Z,99369.98
2022-08-04T06:12:40.465Z,99375.35
2022-08-04T06:15:09.438Z,99380.44
2022-08-04T06:18:33.398Z,99381.73
2022-08-04T06:20:31.714Z,99386.09
2022-08-04T06:23:06.310Z,99387.31
2022-08-04T06:25:39.510Z,99383.71
2022-08-04T06:28:08.258Z,99381.83
2022-08-04T06:30:37.244Z,99382.19
2022-08-04T06:33:14.099Z,99379.30
2022-08-04T06:35:42.127Z,99381.21
2022-08-04T06:38:09.953Z,99386.36
2022-08-04T06:40:40.830Z,99381.79
2022-08-04T06:43:08.791Z,99380.45
2022-08-04T06:45:38.125Z,99387.00
2022-08-04T06:48:06.828Z,99387.02
2022-08-04T06:51:25.897Z,99385.58
2022-08-04T06:53:25.470Z,99385.04
2022-08-04T06:55:54.126Z,99390.63
2022-08-04T06:58:22.279Z,99388.57
2022-08-04T07:00:50.859Z,99386.34
2022-08-04T07:03:19.568Z,99388.40
2022-08-04T07:05:48.617Z,99386.73
2022-08-04T07:08:16.735Z,99389.45
2022-08-04T07:10:45.437Z,99393.15
2022-08-04T07:13:13.806Z,99394.08
2022-08-04T07:15:45.131Z,99394.20
2022-08-04T07:18:12.899Z,99396.30
2022-08-04T07:20:43.180Z,99398.46
2022-08-04T07:23:17.205Z,99400.21
2022-08-04T07:26:11.310Z,99400.60
2022-08-04T07:28:40.490Z,99400.62
2022-08-04T07:31:33.084Z,99403.88
2022-08-04T07:34:17.248Z,99404.98
2022-08-04T07:36:52.761Z,99405.17
2022-08-04T07:39:27.729Z,99406.87
2022-08-04T07:42:01.580Z,99410.66
2022-08-04T07:44:32.202Z,99407.23
2022-08-04T07:47:01.890Z,99405.89
2022-08-04T07:49:52.223Z,99399.97
2022-08-04T07:52:18.218Z,99406.95
2022-08-04T07:54:45.806Z,99402.31
2022-08-04T07:57:20.706Z,99400.84
2022-08-04T08:00:01.044Z,99400.55
2022-08-04T08:02:29.388Z,99394.98
2022-08-04T08:04:57.133Z,99396.44
2022-08-04T08:07:24.989Z,99394.63
2022-08-04T08:09:52.645Z,99394.73
2022-08-04T08:12:38.226Z,99391.77
2022-08-04T08:15:10.357Z,99393.06
2022-08-04T08:17:58.192Z,99393.30
2022-08-04T08:20:31.664Z,99391.63
2022-08-04T08:23:01.185Z,99392.15
2022-08-04T08:25:31.626Z,99391.54
2022-08-04T08:27:59.968Z,99392.58
2022-08-04T08:30:31.819Z,99390.69
2022-08-04T08:33:12.706Z,99393.90
2022-08-04T08:35:54.847Z,99388.52
2022-08-04T08:38:43.887Z,99392.42
2022-08-04T08:41:26.483Z,99395.23
2022-08-04T08:44:30.167Z,99396.84
2022-08-04T08:48:06.322Z,99394.16
2022-08-04T08:50:52.690Z,99400.20
2022-08-04T08:53:34.371Z,99393.61
2022-08-04T08:56:30.936Z,99397.14
2022-08-04T08:59:16.713Z,99396.09
2022-08-04T09:02:03.874Z,99399.63
2022-08-04T09:04:54.486Z,99396.60
2022-08-04T09:07:32.818Z,99393.02
2022-08-04T09:10:17.989Z,99390.12
2022-08-04T09:13:05.196Z,99398.09
2022-08-04T09:15:36.424Z,99399.20
2022-08-04T09:18:27.239Z,99397.84
2022-08-04T09:21:10.463Z,99392.67
2022-08-04T09:24:34.667Z,99390.64
2022-08-04T09:26:59.943Z,99401.15
2022-08-04T09:29:36.830Z,99399.36
2022-08-04T09:32:22.527Z,99391.91
2022-08-04T09:35:07.294Z,99396.73
2022-08-04T09:37:49.245Z,99391.39
2022-08-04T09:40:31.487Z,99392.52
2022-08-04T09:43:59.218Z,99389.91
2022-08-04T09:46:47.206Z,99388.89
2022-08-04T09:49:18.528Z,99393.02
2022-08-04T09:51:57.613Z,99388.92
2022-08-04T09:54:31.019Z,99384.96
2022-08-04T09:57:34.532Z,99384.08
2022-08-04T10:00:06.546Z,99378.45
2022-08-04T10:02:48.243Z,99384.80
2022-08-04T10:05:22.342Z,99378.69
2022-08-04T10:08:15.733Z,99375.22
2022-08-04T10:11:00.395Z,99373.08
2022-08-04T10:13:34.567Z,99375.23
2022-08-04T10:16:43.481Z,99380.86
2022-08-04T10:19:26.395Z,99379.35
2022-08-04T10:22:27.332Z,99377.54
2022-08-04T10:26:02.609Z,99369.32
2022-08-04T10:28:06.573Z,99366.65
2022-08-04T10:30:37.200Z,99369.91
2022-08-04T10:33:26.186Z,99368.60
2022-08-04T10:36:07.854Z,99367.15
2022-08-04T10:38:49.664Z,99364.95
2022-08-04T10:41:30.194Z,99363.86
2022-08-04T10:44:42.425Z,99365.05
2022-08-04T10:47:16.936Z,99357.13
2022-08-04T10:49:52.381Z,99349.17
2022-08-04T10:52:38.782Z,99350.80
2022-08-04T10:55:23.731Z,99353.73
2022-08-04T10:58:17.179Z,99348.35
2022-08-04T11:00:46.189Z,99338.91
2022-08-04T11:03:20.993Z,99337.45
2022-08-04T11:06:04.713Z,99337.19
2022-08-04T11:08:48.932Z,99336.86
2022-08-04T11:11:22.677Z,99336.91
2022-08-04T11:14:00.825Z,99335.27
2022-08-04T11:16:51.934Z,99337.09
2022-08-04T11:19:44.784Z,99336.58
2022-08-04T11:22:39.869Z,99338.75
2022-08-04T11:25:22.971Z,99337.86
2022-08-04T11:28:20.026Z,99336.25
2022-08-04T11:30:53.921Z,99335.55
2022-08-04T11:33:54.818Z,99333.95
2022-08-04T11:36:39.987Z,99333.77
2022-08-04T11:39:30.810Z,99331.58
2022-08-04T11:42:07.050Z,99329.70
2022-08-04T11:44:43.517Z,99324.13
2022-08-04T11:47:32.832Z,99329.35
2022-08-04T11:50:08.770Z,99327.46
2022-08-04T11:52:39.083Z,99320.63
2022-08-04T11:55:09.996Z,99325.86
2022-08-04T11:57:38.189Z,99329.13
2022-08-04T12:00:17.546Z,99328.38
2022-08-04T12:03:12.144Z,99320.66
2022-08-04T12:05:59.986Z,99318.98
2022-08-04T12:08:49.233Z,99318.98
2022-08-04T12:11:28.634Z,99317.73
2022-08-04T12:14:21.611Z,99314.60
2022-08-04T12:16:58.820Z,99313.52
2022-08-04T12:19:43.766Z,99319.79
2022-08-04T12:22:29.813Z,99317.10
2022-08-04T12:25:13.203Z,99314.39
2022-08-04T12:27:53.846Z,99307.02
2022-08-04T12:31:01.503Z,99306.63
2022-08-04T12:33:17.995Z,99307.91
2022-08-04T12:36:10.658Z,99306.25
2022-08-04T12:38:47.660Z,99311.85
2022-08-04T12:41:22.571Z,99303.90
2022-08-04T12:43:50.613Z,99302.88
2022-08-04T12:46:26.470Z,99295.67
2022-08-04T12:49:00.847Z,99297.54
2022-08-04T12:52:06.086Z,99301.38
2022-08-04T12:54:28.809Z,99299.02
2022-08-04T12:57:01.791Z,99292.77
2022-08-04T12:59:30.338Z,99291.52
2022-08-04T13:02:10.600Z,99294.77
2022-08-04T13:04:51.474Z,99294.42
2022-08-04T13:07:22.828Z,99292.64
2022-08-04T13:09:51.867Z,99295.00
2022-08-04T13:12:25.999Z,99285.50
2022-08-04T13:15:10.848Z,99281.42
2022-08-04T13:17:51.954Z,99276.02
2022-08-04T13:20:34.222Z,99279.36
2022-08-04T13:23:09.049Z,99274.09
2022-08-04T13:26:43.169Z,99271.77
2022-08-04T13:28:29.218Z,99272.06
2022-08-04T13:30:59.957Z,99270.46
2022-08-04T13:33:41.451Z,99268.00
2022-08-04T13:36:10.629Z,99269.17
2022-08-04T13:38:41.094Z,99266.10
2022-08-04T13:41:09.109Z,99267.80
2022-08-04T13:44:19.429Z,99264.34
2022-08-04T13:46:51.049Z,99264.17
2022-08-04T13:49:54.204Z,99262.50
2022-08-04T13:52:11.443Z,99260.27
2022-08-04T13:54:45.463Z,99260.46
2022-08-04T13:57:19.213Z,99252.06
2022-08-04T13:59:56.386Z,99255.72
2022-08-04T14:02:39.686Z,99250.36
2022-08-04T14:05:30.372Z,99248.13
2022-08-04T14:08:04.177Z,99244.98
2022-08-04T14:10:32.929Z,99248.30
2022-08-04T14:13:04.292Z,99248.16
2022-08-04T14:16:02.009Z,99245.23
2022-08-04T14:18:32.928Z,99248.19
2022-08-04T14:21:10.678Z,99243.44
2022-08-04T14:23:47.229Z,99238.02
2022-08-04T14:26:32.540Z,99235.66
2022-08-04T14:29:35.873Z,99236.08
2022-08-04T14:32:12.708Z,99234.89
2022-08-04T14:34:45.090Z,99231.30
2022-08-04T14:37:18.291Z,99228.73
2022-08-04T14:40:18.137Z,99224.13
2022-08-04T14:42:55.774Z,99220.92
2022-08-04T14:45:31.222Z,99224.84
2022-08-04T14:47:59.363Z,99224.77
2022-08-04T14:50:36.277Z,99226.14
2022-08-04T14:53:09.239Z,99224.88
2022-08-04T14:55:38.280Z,99221.41
2022-08-04T14:58:34.127Z,99215.80
2022-08-04T15:00:57.414Z,99212.02
2022-08-04T15:03:26.451Z,99212.18
2022-08-04T15:06:05.402Z,99211.40
2022-08-04T15:08:36.065Z,99210.05
2022-08-04T15:11:03.833Z,99214.51
2022-08-04T15:13:32.760Z,99212.41
2022-08-04T15:16:07.335Z,99208.81
2022-08-04T15:18:37.344Z,99212.56
2022-08-04T15:21:06.727Z,99212.41
2022-08-04T15:23:39.257Z,99214.24
2022-08-04T15:26:13.910Z,99215.17
2022-08-04T15:28:47.265Z,99212.02
2022-08-04T15:32:05.669Z,99211.40
2022-08-04T15:34:03.491Z,99207.54
2022-08-04T15:36:56.060Z,99208.65
2022-08-04T15:39:44.019Z,99209.16
2022-08-04T15:42:22.105Z,99208.03
2022-08-04T15:45:04.596Z,99206.70
2022-08-04T15:47:32.694Z,99206.75
2022-08-04T15:50:11.764Z,99210.42
2022-08-04T15:53:01.422Z,99206.81
2022-08-04T15:55:40.541Z,99207.71
2022-08-04T15:58:08.447Z,99200.39
2022-08-04T16:00:48.017Z,99197.70
2022-08-04T16:03:58.946Z,99195.17
2022-08-04T16:06:22.387Z,99196.02
2022-08-04T16:08:58.178Z,99194.98
2022-08-04T16:11:31.071Z,99188.53
2022-08-04T16:13:59.679Z,99191.16
2022-08-04T16:16:31.778Z,99191.06
2022-08-04T16:19:06.996Z,99186.23
2022-08-04T16:21:48.715Z,99187.60
2022-08-04T16:24:35.541Z,99186.23
2022-08-04T16:27:08.421Z,99184.05
2022-08-04T16:29:40.123Z,99184.59
2022-08-04T16:32:25.194Z,99183.73
2022-08-04T16:34:56.916Z,99185.16
2022-08-04T16:37:38.741Z,99181.79
2022-08-04T16:40:35.287Z,99180.96
2022-08-04T16:43:13.208Z,99180.16
2022-08-04T16:46:02.596Z,99182.34
2022-08-04T16:48:35.156Z,99178.86
2022-08-04T16:51:10.584Z,99180.56
2022-08-04T16:53:52.704Z,99181.48
2022-08-04T16:56:29.461Z,99177.94
2022-08-04T16:58:57.541Z,99179.59
2022-08-04T17:01:32.585Z,99178.15
2022-08-04T17:04:07.508Z,99180.14
2022-08-04T17:06:40.869Z,99182.11
2022-08-04T17:09:15.040Z,99182.15
2022-08-04T17:11:44.826Z,99186.83
2022-08-04T17:14:13.345Z,99185.61
2022-08-04T17:16:42.525Z,99184.85
2022-08-04T17:19:23.885Z,99184.33
2022-08-04T17:22:04.062Z,99184.02
2022-08-04T17:24:36.372Z,99190.06
2022-08-04T17:29:52.899Z,99191.05
2022-08-04T17:32:22.505Z,99187.95
2022-08-04T17:34:53.531Z,99186.63
2022-08-04T17:37:39.235Z,99181.64
2022-08-04T17:40:13.098Z,99179.31
2022-08-04T17:42:42.360Z,99181.67
2022-08-04T17:48:08.987Z,99182.86
2022-08-04T17:50:43.453Z,99184.64
2022-08-04T17:53:13.138Z,99179.90
2022-08-04T17:55:43.210Z,99180.41
2022-08-04T17:58:20.862Z,99180.71
2022-08-04T18:03:59.910Z,99180.47
2022-08-04T18:06:27.519Z,99176.95
2022-08-04T18:08:59.317Z,99178.77
2022-08-04T18:11:56.780Z,99179.11
2022-08-04T18:18:19.845Z,99181.23
2022-08-04T18:20:21.038Z,99187.39
2022-08-04T18:22:50.532Z,99189.79
2022-08-04T18:25:23.285Z,99188.50
2022-08-04T18:28:14.287Z,99191.05
2022-08-04T18:30:54.783Z,99192.29
2022-08-04T18:33:39.484Z,99191.56
2022-08-04T18:39:13.459Z,99200.12
2022-08-04T18:42:01.602Z,99199.65
2022-08-04T18:44:32.678Z,99204.20
2022-08-04T18:47:23.075Z,99203.89
2022-08-04T18:51:01.835Z,99203.98
2022-08-04T18:52:45.114Z,99202.14
2022-08-04T18:55:55.994Z,99203.14
2022-08-04T18:58:07.834Z,99208.02
2022-08-04T19:00:45.826Z,99206.95
2022-08-04T19:03:16.479Z,99204.59
2022-08-04T19:05:51.405Z,99207.73
2022-08-04T19:08:34.551Z,99213.58
2022-08-04T19:11:36.958Z,99208.88
2022-08-04T19:13:58.054Z,99208.16
2022-08-04T19:16:28.357Z,99213.84
2022-08-04T19:18:57.388Z,99212.15
2022-08-04T19:21:58.738Z,99209.35
2022-08-04T19:24:32.642Z,99210.73
2022-08-04T19:27:07.153Z,99208.38
2022-08-04T19:29:41.243Z,99207.91
2022-08-04T19:32:16.140Z,99208.80
2022-08-04T19:34:47.448Z,99210.08
2022-08-04T19:37:58.596Z,99211.96
2022-08-04T19:40:07.403Z,99213.75
2022-08-04T19:42:35.864Z,99215.86
2022-08-04T19:45:05.075Z,99214.27
2022-08-04T19:48:17.906Z,99214.82
2022-08-04T19:50:20.663Z,99218.50
2022-08-04T19:52:52.906Z,99221.55
2022-08-04T19:55:36.679Z,99220.35
2022-08-04T19:58:08.326Z,99223.55
2022-08-04T20:00:38.722Z,99223.39
2022-08-04T20:03:09.966Z,99222.52
2022-08-04T20:05:53.562Z,99220.58
2022-08-04T20:08:27.844Z,99219.23
2022-08-04T20:10:57.850Z,99225.50
2022-08-04T20:13:30.948Z,99229.57
2022-08-04T20:16:28.883Z,99227.02
2022-08-04T20:18:56.662Z,99229.09
2022-08-04T20:21:53.469Z,99225.23
2022-08-04T20:24:38.645Z,99225.73
2022-08-04T20:27:04.945Z,99230.64
2022-08-04T20:29:40.245Z,99232.12
2022-08-04T20:32:09.827Z,99236.36
2022-08-04T20:34:40.200Z,99234.75
2022-08-04T20:37:10.385Z,99234.98
2022-08-04T20:39:38.494Z,99232.77
2022-08-04T20:42:06.798Z,99233.44
2022-08-04T20:44:46.255Z,99232.64
2022-08-04T20:47:14.556Z,99226.78
2022-08-04T20:49:42.643Z,99224.96
2022-08-04T20:52:16.326Z,99226.36
2022-08-04T20:54:49.231Z,99223.71
2022-08-04T20:57:49.721Z,99228.94
2022-08-04T21:00:13.464Z,99226.48
2022-08-04T21:02:41.424Z,99227.52
2022-08-04T21:05:09.580Z,99231.10
2022-08-04T21:07:43.728Z,99233.05
2022-08-04T21:10:11.825Z,99233.10
2022-08-04T21:12:40.519Z,99231.23
2022-08-04T21:15:14.466Z,99233.48
2022-08-04T21:17:57.455Z,99226.86
2022-08-04T21:20:31.359Z,99226.21
2022-08-04T21:23:02.371Z,99224.87
2022-08-04T21:25:31.650Z,99221.61
2022-08-04T21:28:04.320Z,99223.23
2022-08-04T21:30:37.076Z,99222.05
2022-08-04T21:33:22.072Z,99220.27
2022-08-04T21:35:54.323Z,99221.52
2022-08-04T21:38:28.051Z,99219.61
2022-08-04T21:40:58.875Z,99222.83
2022-08-04T21:43:42.624Z,99222.92
2022-08-04T21:46:11.403Z,99220.59
2022-08-04T21:48:39.606Z,99220.16
2022-08-04T21:51:57.791Z,99217.50
2022-08-04T21:54:15.065Z,99217.88
2022-08-04T21:59:33.510Z,99213.77
2022-08-04T22:02:13.040Z,99217.34
2022-08-04T22:04:40.696Z,99219.08
2022-08-04T22:07:08.358Z,99215.23
2022-08-04T22:09:41.150Z,99213.77
2022-08-04T22:12:12.029Z,99211.86
2022-08-04T22:14:40.365Z,99209.70
2022-08-04T22:17:13.848Z,99213.33
2022-08-04T22:19:55.052Z,99207.78
2022-08-04T22:22:26.757Z,99212.30
2022-08-04T22:25:01.363Z,99207.89
2022-08-04T22:27:55.333Z,99204.80
2022-08-04T22:30:23.591Z,99204.75
2022-08-04T22:32:51.780Z,99204.17
2022-08-04T22:35:35.808Z,99199.17
2022-08-04T22:38:28.032Z,99195.75
2022-08-04T22:41:00.258Z,99196.46
2022-08-04T22:43:32.441Z,99201.13
2022-08-04T22:46:06.396Z,99199.50
2022-08-04T22:48:39.621Z,99197.28
2022-08-04T22:51:12.875Z,99195.98
2022-08-04T22:53:42.029Z,99195.70
2022-08-04T22:56:37.738Z,99191.69
2022-08-04T22:59:10.006Z,99184.86
2022-08-04T23:02:00.144Z,99182.75
2022-08-04T23:04:27.263Z,99180.75
2022-08-04T23:06:54.976Z,99183.24
2022-08-04T23:09:49.602Z,99184.75
2022-08-04T23:12:27.482Z,99180.09
2022-08-04T23:14:58.798Z,99179.34
2022-08-04T23:17:28.127Z,99174.23
2022-08-04T23:19:58.648Z,99172.02
2022-08-04T23:22:41.580Z,99166.82
2022-08-04T23:25:15.124Z,99169.47
2022-08-04T23:27:51.534Z,99171.25
2022-08-04T23:30:24.441Z,99168.27
2022-08-04T23:32:57.311Z,99166.77
2022-08-04T23:35:24.915Z,99169.96
2022-08-04T23:37:57.270Z,99169.48
2022-08-04T23:40:33.051Z,99171.01
2022-08-04T23:43:12.295Z,99171.48
2022-08-04T23:46:04.126Z,99172.40
2022-08-04T23:48:35.433Z,99168.66
2022-08-04T23:51:10.353Z,99164.89
2022-08-04T23:54:03.346Z,99161.42
2022-08-04T23:56:33.935Z,99160.48
2022-08-04T23:59:03.893Z,99161.52
